Time;durP1;ratioP1;P1;durP2;ratioP2;P2;SDS_P1;SDS_P2;PMS_P1;PMS_P2;Temp;Humidity;BMP_temperature;BMP_pressure;BME280_temperature;BME280_humidity;BME280_pressure;Samples;Min_cycle;Max_cycle;Signal;HPM_P1;HPM_P2
2021/04/30 00:01:35;;;;;;;19.63;5.70;;;;;;;10.96;59.72;101301.72;5062578;28;20056;-88
2021/04/30 00:04:02;;;;;;;15.82;5.63;;;;;;;10.93;59.69;101304.44;5057356;28;20676;-90
2021/04/30 00:06:32;;;;;;;16.25;5.85;;;;;;;10.99;59.88;101306.09;5060579;28;20020;-90
2021/04/30 00:08:59;;;;;;;20.63;6.00;;;;;;;11.03;59.37;101297.25;5055715;28;20486;-89
2021/04/30 00:11:25;;;;;;;20.90;6.90;;;;;;;11.00;59.76;101298.16;5056508;28;20031;-90
2021/04/30 00:13:52;;;;;;;16.60;5.90;;;;;;;11.00;59.50;101299.91;5055947;28;20049;-90
2021/04/30 00:16:22;;;;;;;19.23;6.18;;;;;;;10.91;59.95;101297.41;5081753;22;20055;-89
2021/04/30 00:18:49;;;;;;;18.63;6.03;;;;;;;11.00;59.68;101299.91;5047674;28;20113;-89
2021/04/30 00:21:21;;;;;;;23.40;7.07;;;;;;;10.95;59.92;101300.00;5063509;28;20029;-91
2021/04/30 00:23:56;;;;;;;17.45;6.28;;;;;;;11.00;59.69;101302.56;5062143;28;20052;-90
2021/04/30 00:26:23;;;;;;;13.05;5.80;;;;;;;10.91;59.72;101298.28;5067464;28;20431;-87
2021/04/30 00:28:49;;;;;;;18.17;5.97;;;;;;;10.86;59.99;101293.94;5067183;28;20040;-92
2021/04/30 00:31:19;;;;;;;24.52;6.30;;;;;;;10.81;60.18;101294.00;5063253;28;20515;-86
2021/04/30 00:33:46;;;;;;;14.90;5.07;;;;;;;10.82;59.96;101293.97;5026676;28;20036;-79
2021/04/30 00:36:13;;;;;;;19.75;7.05;;;;;;;10.92;59.75;101297.38;5057863;28;20029;-86
2021/04/30 00:38:42;;;;;;;17.50;5.72;;;;;;;10.72;60.42;101296.78;5036779;28;20025;-83
2021/04/30 00:41:15;;;;;;;16.52;5.82;;;;;;;10.81;59.99;101297.53;5066743;28;20028;-92
2021/04/30 00:43:45;;;;;;;16.00;5.57;;;;;;;10.74;60.51;101294.97;5059989;28;20047;-87
2021/04/30 00:46:11;;;;;;;14.90;4.90;;;;;;;10.64;60.83;101300.41;5065213;28;20119;-93
2021/04/30 00:48:39;;;;;;;27.30;5.65;;;;;;;10.66;60.69;101309.19;5065024;28;20024;-95
2021/04/30 00:51:06;;;;;;;16.05;6.18;;;;;;;10.72;60.43;101308.25;5068097;28;20025;-92
2021/04/30 00:53:32;;;;;;;15.20;5.25;;;;;;;10.71;60.77;101306.50;5063832;28;20547;-90
2021/04/30 00:55:59;;;;;;;23.73;6.10;;;;;;;10.79;60.64;101311.69;5065990;28;20388;-92
2021/04/30 00:58:27;;;;;;;17.00;5.63;;;;;;;10.79;60.85;101304.63;5030159;28;20033;-93
2021/04/30 01:00:54;;;;;;;22.02;6.20;;;;;;;10.87;60.33;101301.88;5048751;28;20435;-89
2021/04/30 01:03:21;;;;;;;17.05;5.65;;;;;;;10.94;60.28;101303.56;5060051;28;20043;-93
2021/04/30 01:05:47;;;;;;;25.23;5.80;;;;;;;10.94;60.24;101300.00;5061428;28;20037;-93
2021/04/30 01:08:15;;;;;;;20.30;5.15;;;;;;;10.98;60.24;101309.69;5042549;28;20025;-92
2021/04/30 01:10:42;;;;;;;17.58;5.03;;;;;;;11.00;60.25;101308.78;5066418;28;20024;-94
2021/04/30 01:13:11;;;;;;;13.80;4.80;;;;;;;10.98;60.32;101305.25;5069205;28;20067;-85
2021/04/30 01:15:37;;;;;;;14.85;4.88;;;;;;;11.00;60.19;101308.78;5064139;28;20036;-91
2021/04/30 01:18:04;;;;;;;16.80;4.97;;;;;;;11.03;60.22;101306.94;5064883;28;20029;-86
2021/04/30 01:20:34;;;;;;;21.92;4.70;;;;;;;11.04;60.41;101308.72;5067508;28;20552;-93
2021/04/30 01:23:00;;;;;;;20.50;5.07;;;;;;;11.06;60.44;101317.53;5061374;28;20061;-90
2021/04/30 01:25:34;;;;;;;14.27;4.40;;;;;;;11.15;60.13;101317.38;5063680;28;20020;-91
2021/04/30 01:28:02;;;;;;;19.38;5.50;;;;;;;11.06;60.54;101317.53;5061361;28;20029;-91
2021/04/30 01:30:33;;;;;;;26.50;5.13;;;;;;;11.11;60.54;101315.69;5041570;28;20037;-89
2021/04/30 01:33:00;;;;;;;12.00;4.35;;;;;;;11.09;60.28;101317.47;5060263;28;20035;-87
2021/04/30 01:35:30;;;;;;;16.77;4.18;;;;;;;11.12;60.35;101313.00;5060371;28;20074;-83
2021/04/30 01:37:59;;;;;;;16.25;4.75;;;;;;;11.08;60.54;101313.06;5064378;28;20087;-86
2021/04/30 01:40:30;;;;;;;13.60;4.13;;;;;;;11.07;60.44;101319.28;5059487;28;20048;-85
2021/04/30 01:45:55;;;;;;;16.13;5.03;;;;;;;11.04;60.93;101327.28;5078213;27;20422;-83
2021/04/30 01:48:28;;;;;;;23.48;5.47;;;;;;;11.09;60.93;101321.00;5061048;28;20025;-84
2021/04/30 01:50:56;;;;;;;17.88;4.15;;;;;;;11.09;60.69;101322.78;5062011;28;20028;-82
2021/04/30 01:53:26;;;;;;;14.55;3.90;;;;;;;11.15;60.52;101327.97;5065880;28;20031;-89
2021/04/30 01:55:59;;;;;;;24.65;5.47;;;;;;;11.14;60.75;101328.88;5063194;28;20030;-91
2021/04/30 01:58:26;;;;;;;14.60;4.90;;;;;;;11.10;60.78;101330.72;5060334;28;20029;-86
2021/04/30 02:00:54;;;;;;;24.55;4.68;;;;;;;11.20;60.52;101330.56;5057918;28;20031;-91
2021/04/30 02:03:22;;;;;;;15.90;4.00;;;;;;;11.22;60.41;101331.44;5058222;28;20358;-82
2021/04/30 02:05:49;;;;;;;14.38;5.07;;;;;;;11.23;60.56;101336.72;5057806;28;20028;-90
2021/04/30 02:08:17;;;;;;;9.43;3.92;;;;;;;11.28;60.49;101339.31;5055110;28;20503;-90
2021/04/30 02:10:45;;;;;;;22.55;5.07;;;;;;;11.30;60.29;101333.09;5058117;28;20025;-94
2021/04/30 02:13:12;;;;;;;15.68;4.85;;;;;;;11.29;60.57;101335.72;5068514;28;20108;-94
2021/04/30 02:15:41;;;;;;;11.60;4.32;;;;;;;11.24;60.79;101327.88;5058045;28;20079;-94
2021/04/30 02:18:08;;;;;;;9.73;4.20;;;;;;;11.29;60.76;101331.31;5055256;28;20033;-86
2021/04/30 02:20:43;;;;;;;12.45;3.88;;;;;;;11.35;60.68;101324.16;5063324;28;20033;-93
2021/04/30 02:23:10;;;;;;;21.90;4.60;;;;;;;11.33;60.62;101329.50;5055489;28;20027;-81
2021/04/30 02:25:37;;;;;;;14.82;3.78;;;;;;;11.35;60.61;101330.34;5058124;28;20048;-94
2021/04/30 02:28:07;;;;;;;23.38;4.72;;;;;;;11.30;60.95;101327.78;5060110;28;20096;-92
2021/04/30 02:30:38;;;;;;;18.95;4.72;;;;;;;11.34;60.83;101328.59;5056787;28;20057;-84
2021/04/30 02:33:06;;;;;;;18.35;5.47;;;;;;;11.33;60.98;101327.72;5062936;28;20450;-87
2021/04/30 02:35:35;;;;;;;22.33;5.15;;;;;;;11.33;61.04;101333.03;5066853;28;20033;-90
2021/04/30 02:38:04;;;;;;;24.40;7.30;;;;;;;11.38;60.82;101332.97;5073194;28;20069;-93
2021/04/30 02:40:35;;;;;;;18.88;4.32;;;;;;;11.44;60.69;101334.63;5063448;28;20124;-91
2021/04/30 02:43:05;;;;;;;22.95;4.93;;;;;;;11.39;60.75;101336.47;5057790;28;20384;-88
2021/04/30 02:45:31;;;;;;;14.32;4.00;;;;;;;11.43;60.83;101338.19;5064410;28;20036;-91
2021/04/30 02:47:59;;;;;;;17.50;5.60;;;;;;;11.38;61.10;101335.59;5057660;28;20033;-92
2021/04/30 02:50:31;;;;;;;16.55;5.18;;;;;;;11.40;61.03;101343.53;5069333;28;20051;-87
2021/04/30 02:53:01;;;;;;;19.15;5.25;;;;;;;11.49;60.58;101340.75;5059473;28;20021;-88
2021/04/30 02:55:28;;;;;;;11.38;5.57;;;;;;;11.43;61.05;101348.81;5051758;28;20423;-83
2021/04/30 02:57:57;;;;;;;16.17;4.90;;;;;;;11.48;60.81;101342.50;5041427;28;20021;-91
2021/04/30 03:00:31;;;;;;;17.27;5.00;;;;;;;11.45;61.00;101347.00;5044733;28;20374;-90
2021/04/30 03:03:00;;;;;;;16.65;5.30;;;;;;;11.44;61.02;101340.81;5035445;28;20025;-85
2021/04/30 03:05:27;;;;;;;16.80;4.85;;;;;;;11.44;60.86;101339.94;5035336;28;20069;-89
2021/04/30 03:07:54;;;;;;;23.75;6.03;;;;;;;11.51;60.73;101340.72;5040222;28;20022;-87
2021/04/30 03:10:20;;;;;;;17.88;5.22;;;;;;;11.55;60.54;101337.13;5037946;28;20377;-89
2021/04/30 03:12:47;;;;;;;26.75;6.38;;;;;;;11.56;60.75;101339.72;5037182;28;20112;-90
2021/04/30 03:15:15;;;;;;;21.33;6.20;;;;;;;11.57;60.71;101336.19;5037927;28;20029;-94
2021/04/30 03:17:42;;;;;;;19.70;5.60;;;;;;;11.56;61.13;101333.56;5035583;28;20393;-93
2021/04/30 03:20:10;;;;;;;24.40;5.72;;;;;;;11.52;60.97;101335.38;5047066;28;20032;-93
2021/04/30 03:22:36;;;;;;;18.48;6.03;;;;;;;11.53;61.29;101330.97;5038239;28;20032;-93
2021/04/30 03:25:04;;;;;;;21.15;5.20;;;;;;;11.54;60.74;101330.94;5050205;28;20116;-86
2021/04/30 03:27:30;;;;;;;13.93;5.38;;;;;;;11.58;60.64;101332.63;5036981;28;20120;-94
2021/04/30 03:29:57;;;;;;;21.55;6.55;;;;;;;11.57;60.93;101335.31;5041666;28;20056;-93
2021/04/30 03:32:24;;;;;;;21.50;5.88;;;;;;;11.57;61.34;101330.88;5041060;28;20082;-93
2021/04/30 03:34:53;;;;;;;18.88;6.18;;;;;;;11.60;61.21;101330.84;5039678;28;20022;-85
2021/04/30 03:37:20;;;;;;;24.98;6.90;;;;;;;11.54;61.20;101328.28;5035132;28;20473;-93
2021/04/30 03:39:47;;;;;;;17.73;6.05;;;;;;;11.61;60.75;101340.56;5042732;28;20025;-92
2021/04/30 03:42:13;;;;;;;18.42;6.65;;;;;;;11.51;61.24;101336.28;5039371;28;20020;-93
2021/04/30 03:44:40;;;;;;;16.88;7.03;;;;;;;11.52;61.50;101338.03;5036339;28;20477;-90
2021/04/30 03:47:06;;;;;;;19.58;6.05;;;;;;;11.56;61.16;101334.44;5034861;28;20655;-84
2021/04/30 03:49:32;;;;;;;27.95;6.82;;;;;;;11.56;61.52;101334.44;5039937;28;20036;-82
2021/04/30 03:51:59;;;;;;;28.13;7.10;;;;;;;11.55;61.16;101332.69;5038393;28;20068;-84
2021/04/30 03:54:29;;;;;;;19.95;6.55;;;;;;;11.57;61.32;101327.34;5035782;28;20036;-84
2021/04/30 03:57:20;;;;;;;19.30;6.78;;;;;;;11.67;61.46;101336.06;5044286;28;20406;-84
2021/04/30 03:59:54;;;;;;;19.52;6.68;;;;;;;11.64;61.38;101335.19;5040703;28;20053;-84
2021/04/30 04:02:25;;;;;;;28.85;7.07;;;;;;;11.58;61.43;101334.44;5046081;28;20056;-82
2021/04/30 04:04:51;;;;;;;24.10;7.45;;;;;;;11.59;61.00;101329.09;5034454;28;20476;-81
2021/04/30 04:07:18;;;;;;;18.98;7.10;;;;;;;11.60;61.17;101336.16;5033210;28;20025;-82
2021/04/30 04:09:44;;;;;;;20.13;6.65;;;;;;;11.60;61.17;101328.19;5033878;28;20041;-82
2021/04/30 04:12:10;;;;;;;22.52;7.43;;;;;;;11.57;61.51;101330.88;5038004;28;20021;-90
2021/04/30 04:14:40;;;;;;;17.48;6.82;;;;;;;11.60;61.12;101329.94;5035549;28;20079;-94
2021/04/30 04:17:08;;;;;;;24.85;7.43;;;;;;;11.53;61.70;101318.56;5049693;28;20499;-94
2021/04/30 04:19:37;;;;;;;19.88;6.78;;;;;;;11.56;61.32;101321.16;5038808;28;20034;-93
2021/04/30 04:22:03;;;;;;;24.60;8.10;;;;;;;11.53;61.77;101317.72;5033765;28;20026;-87
2021/04/30 04:24:30;;;;;;;21.40;7.78;;;;;;;11.50;61.52;101331.88;5037437;28;20021;-91
2021/04/30 04:26:56;;;;;;;21.50;7.47;;;;;;;11.52;61.79;101327.44;5034169;28;20021;-92
2021/04/30 04:29:23;;;;;;;16.88;8.30;;;;;;;11.57;61.37;101333.53;5057427;28;20021;-93
2021/04/30 04:31:49;;;;;;;17.45;8.85;;;;;;;11.54;61.84;101336.25;5033892;28;20159;-94
2021/04/30 04:34:16;;;;;;;24.92;9.05;;;;;;;11.48;62.03;101333.69;5055658;28;20033;-90
2021/04/30 04:36:43;;;;;;;19.05;8.00;;;;;;;11.55;61.67;101343.31;5042542;28;20032;-90
2021/04/30 04:39:09;;;;;;;26.23;9.02;;;;;;;11.53;61.68;101352.22;5041369;28;20032;-89
2021/04/30 04:41:36;;;;;;;24.58;9.45;;;;;;;11.55;62.09;101345.97;5037934;28;20052;-86
2021/04/30 04:44:02;;;;;;;22.23;9.05;;;;;;;11.58;62.13;101353.00;5036083;28;20029;-81
2021/04/30 04:46:28;;;;;;;24.98;9.82;;;;;;;11.58;61.69;101348.56;5035199;28;20028;-85
2021/04/30 04:48:54;;;;;;;17.67;8.82;;;;;;;11.58;61.90;101353.88;5033587;28;20035;-88
2021/04/30 04:51:21;;;;;;;28.33;9.95;;;;;;;11.52;62.02;101347.78;5036441;28;20029;-85
2021/04/30 04:53:48;;;;;;;18.33;7.95;;;;;;;11.68;61.50;101353.72;5032690;28;20531;-80
2021/04/30 04:56:14;;;;;;;25.52;9.40;;;;;;;11.54;62.39;101362.78;5042750;28;20037;-83
2021/04/30 04:58:41;;;;;;;22.60;10.13;;;;;;;11.64;62.07;101359.06;5049373;28;20056;-85
2021/04/30 05:01:07;;;;;;;22.75;11.02;;;;;;;11.69;61.88;101350.16;5038060;28;20091;-87
2021/04/30 05:03:34;;;;;;;23.38;9.95;;;;;;;11.68;61.79;101353.72;5032941;28;20049;-89
2021/04/30 05:06:01;;;;;;;18.00;8.57;;;;;;;11.72;61.99;101350.13;5034263;28;20022;-84
2021/04/30 05:08:27;;;;;;;22.67;10.05;;;;;;;11.65;62.27;101354.63;5053661;28;20020;-82
2021/04/30 05:10:56;;;;;;;24.60;9.85;;;;;;;11.78;61.93;101355.31;5038906;28;20384;-92
2021/04/30 05:13:24;;;;;;;26.63;11.07;;;;;;;11.74;61.86;101359.81;5035583;28;20018;-92
2021/04/30 05:15:50;;;;;;;18.67;9.77;;;;;;;11.81;61.55;101352.59;5029119;28;20059;-92
2021/04/30 05:18:16;;;;;;;21.35;9.98;;;;;;;11.76;61.83;101355.34;5039673;28;20511;-92
2021/04/30 05:20:42;;;;;;;20.92;10.75;;;;;;;11.84;61.65;101359.63;5036918;28;20087;-91
2021/04/30 05:23:09;;;;;;;25.27;10.63;;;;;;;11.87;61.82;101360.47;5035671;28;20037;-95
2021/04/30 05:25:35;;;;;;;22.98;10.40;;;;;;;11.89;61.69;101361.31;5039580;28;20035;-96
2021/04/30 05:28:02;;;;;;;28.30;11.57;;;;;;;11.88;61.80;101361.38;5048787;28;20028;-91
2021/04/30 05:30:28;;;;;;;25.65;12.15;;;;;;;11.86;61.91;101361.38;5037633;28;20037;-88
2021/04/30 05:32:54;;;;;;;22.73;10.30;;;;;;;11.84;61.71;101363.19;5043313;28;20385;-92
2021/04/30 05:35:20;;;;;;;33.55;12.57;;;;;;;11.85;61.70;101372.91;5040234;28;20048;-94
2021/04/30 05:37:53;;;;;;;27.27;13.10;;;;;;;11.80;61.85;101374.75;5035290;28;20054;-93
2021/04/30 05:40:20;;;;;;;28.13;11.18;;;;;;;11.82;61.82;101380.91;5042922;28;20028;-93
2021/04/30 05:42:46;;;;;;;24.20;12.88;;;;;;;11.84;61.86;101376.47;5035958;28;20033;-93
2021/04/30 05:45:21;;;;;;;28.35;13.30;;;;;;;11.90;62.05;101378.13;5039468;28;20034;-83
2021/04/30 05:47:47;;;;;;;27.98;12.32;;;;;;;11.86;62.23;101377.28;5040519;28;20033;-91
2021/04/30 05:50:14;;;;;;;23.75;13.10;;;;;;;11.83;62.11;101385.31;5049686;28;20075;-85
2021/04/30 05:52:40;;;;;;;34.38;13.77;;;;;;;11.86;62.34;101387.91;5047753;28;20022;-83
2021/04/30 05:55:09;;;;;;;28.90;13.85;;;;;;;11.88;62.74;101388.78;5048567;28;20024;-83
2021/04/30 05:57:37;;;;;;;28.08;13.15;;;;;;;11.92;62.40;101390.47;5049724;28;20116;-89
2021/04/30 06:00:06;;;;;;;25.92;12.85;;;;;;;11.94;63.01;101386.03;5039909;28;20040;-93
2021/04/30 06:02:32;;;;;;;27.88;13.35;;;;;;;11.95;62.64;101389.53;5043468;28;20036;-93
2021/04/30 06:04:58;;;;;;;35.03;14.18;;;;;;;11.92;63.28;101395.78;5033504;28;20036;-87
2021/04/30 06:07:25;;;;;;;30.92;15.88;;;;;;;11.96;63.03;101393.97;5039685;28;20029;-92
2021/04/30 06:09:51;;;;;;;30.10;16.33;;;;;;;12.02;63.09;101391.22;5039327;28;20125;-91
2021/04/30 06:12:17;;;;;;;25.77;14.38;;;;;;;12.09;63.21;101392.00;5035586;28;20026;-94
2021/04/30 06:14:43;;;;;;;29.67;15.30;;;;;;;12.14;63.25;101395.47;5032694;28;20028;-92
2021/04/30 06:17:09;;;;;;;36.78;16.02;;;;;;;12.18;62.96;101396.28;5034290;28;20018;-93
2021/04/30 06:19:36;;;;;;;28.95;16.77;;;;;;;12.23;63.39;101405.03;5034018;28;20029;-93
2021/04/30 06:22:02;;;;;;;25.08;14.40;;;;;;;12.14;63.64;101406.94;5033837;28;20034;-86
2021/04/30 06:24:28;;;;;;;37.85;17.25;;;;;;;12.17;63.23;101399.84;5041718;28;20056;-91
2021/04/30 06:26:55;;;;;;;33.17;15.90;;;;;;;12.17;62.93;101400.72;5032843;28;20071;-96
2021/04/30 06:29:22;;;;;;;29.35;15.65;;;;;;;12.13;63.26;101409.63;5050938;28;20025;-94
2021/04/30 06:31:48;;;;;;;30.13;14.15;;;;;;;12.14;63.46;101403.44;5055452;28;20056;-95
2021/04/30 06:34:15;;;;;;;29.42;15.20;;;;;;;12.19;63.40;101404.22;5042438;28;20041;-95
2021/04/30 06:36:41;;;;;;;28.33;15.23;;;;;;;12.20;63.57;101400.66;5034597;28;20041;-95
2021/04/30 06:39:07;;;;;;;35.45;14.82;;;;;;;12.18;63.54;101402.47;5036201;28;20104;-95
2021/04/30 06:41:33;;;;;;;24.05;14.13;;;;;;;12.13;63.41;101401.69;5036844;28;20033;-95
2021/04/30 06:44:00;;;;;;;26.88;14.80;;;;;;;12.12;63.14;101399.91;5037913;28;20037;-95
2021/04/30 06:46:27;;;;;;;29.92;14.43;;;;;;;12.14;63.67;101403.44;5038946;28;20033;-92
2021/04/30 06:48:53;;;;;;;32.92;15.00;;;;;;;12.16;63.54;101398.94;5057332;28;20021;-92
2021/04/30 06:51:21;;;;;;;30.08;14.45;;;;;;;12.09;63.47;101407.94;5050405;28;20053;-96
2021/04/30 06:53:48;;;;;;;39.65;16.40;;;;;;;12.15;63.50;101410.50;5046410;28;20041;-95
2021/04/30 06:56:14;;;;;;;36.13;16.00;;;;;;;12.11;62.99;101400.81;5054497;28;20033;-92
2021/04/30 06:58:41;;;;;;;23.48;14.20;;;;;;;12.14;63.39;101411.41;5048006;28;20021;-94
2021/04/30 07:01:09;;;;;;;42.28;15.57;;;;;;;12.17;62.73;101411.34;5044151;28;20021;-92
2021/04/30 07:03:36;;;;;;;34.67;17.00;;;;;;;12.18;63.30;101418.41;5054032;28;20037;-91
2021/04/30 07:06:03;;;;;;;36.55;15.15;;;;;;;12.18;63.27;101423.72;5042049;28;20032;-94
2021/04/30 07:08:29;;;;;;;27.48;13.93;;;;;;;12.13;63.38;101418.47;5045424;28;20482;-92
2021/04/30 07:10:55;;;;;;;30.75;15.70;;;;;;;12.18;62.64;101418.41;5043774;28;20108;-91
2021/04/30 07:13:21;;;;;;;33.72;18.13;;;;;;;12.11;63.40;101422.97;5047347;28;20032;-93
2021/04/30 07:15:48;;;;;;;26.67;16.10;;;;;;;12.14;63.23;101417.56;5048190;28;20025;-92
2021/04/30 07:18:14;;;;;;;23.55;13.75;;;;;;;12.20;62.85;101415.72;5052012;28;20025;-93
2021/04/30 07:20:40;;;;;;;28.02;15.57;;;;;;;12.21;63.13;101423.69;5056998;28;20465;-93
2021/04/30 07:23:06;;;;;;;25.17;15.63;;;;;;;12.21;62.99;101425.44;5061462;28;20641;-90
2021/04/30 07:25:33;;;;;;;29.40;15.52;;;;;;;12.19;62.65;101430.78;5043468;28;20072;-95
2021/04/30 07:28:05;;;;;;;45.75;25.98;;;;;;;12.20;62.91;101427.22;5055334;28;20071;-90
2021/04/30 07:30:33;;;;;;;35.05;20.58;;;;;;;12.22;62.90;101432.50;5044210;28;20064;-93
2021/04/30 07:32:59;;;;;;;27.77;17.98;;;;;;;12.28;62.81;101425.28;5035747;28;20032;-94
2021/04/30 07:35:25;;;;;;;33.22;16.98;;;;;;;12.28;63.19;101424.44;5046570;28;20033;-95
2021/04/30 07:37:57;;;;;;;34.08;17.45;;;;;;;12.32;63.19;101427.91;5049906;28;20078;-95
2021/04/30 07:40:24;;;;;;;29.02;16.90;;;;;;;12.27;62.69;101428.88;5047058;28;20044;-93
2021/04/30 07:42:52;;;;;;;35.22;17.35;;;;;;;12.20;63.33;101421.91;5043587;28;20101;-93
2021/04/30 07:45:20;;;;;;;26.05;15.73;;;;;;;12.19;63.17;101424.63;5053281;28;20449;-91
2021/04/30 07:47:47;;;;;;;29.65;16.70;;;;;;;12.21;62.58;101426.34;5045221;28;20056;-95
2021/04/30 07:50:17;;;;;;;27.65;17.33;;;;;;;12.24;63.10;101422.75;5043589;28;20029;-95
2021/04/30 07:52:47;;;;;;;29.38;17.20;;;;;;;12.19;62.79;101421.97;5038221;28;20107;-92
2021/04/30 07:55:13;;;;;;;25.35;15.75;;;;;;;12.20;62.80;101421.03;5036333;28;20380;-94
2021/04/30 07:57:40;;;;;;;31.23;16.92;;;;;;;12.24;62.68;101418.28;5054045;28;20060;-94
2021/04/30 08:00:07;;;;;;;33.03;15.85;;;;;;;12.27;63.27;101423.56;5050383;28;20432;-90
2021/04/30 08:02:33;;;;;;;28.40;14.63;;;;;;;12.32;63.06;101422.59;5056297;28;20192;-81
2021/04/30 08:04:59;;;;;;;25.00;15.93;;;;;;;12.32;62.86;101419.94;5041670;28;20756;-92
2021/04/30 08:07:26;;;;;;;27.52;13.77;;;;;;;12.34;62.88;101423.47;5044618;28;20108;-96
2021/04/30 08:09:55;;;;;;;32.17;16.40;;;;;;;12.40;63.00;101420.66;5047187;28;20017;-95
2021/04/30 08:12:22;;;;;;;24.88;16.45;;;;;;;12.46;62.55;101416.13;5038488;28;20030;-96
2021/04/30 08:14:48;;;;;;;34.80;16.13;;;;;;;12.51;62.57;101412.50;5039928;28;20112;-95
2021/04/30 08:17:15;;;;;;;26.98;17.55;;;;;;;12.58;62.31;101416.81;5041170;28;20033;-94
2021/04/30 08:19:41;;;;;;;26.95;17.90;;;;;;;12.60;62.68;101417.66;5048783;28;20087;-89
2021/04/30 08:22:09;;;;;;;27.35;17.02;;;;;;;12.61;62.44;101427.34;5048808;28;20200;-94
2021/04/30 08:24:38;;;;;;;101.15;54.35;;;;;;;12.64;61.97;101426.47;5039860;28;20037;-93
2021/04/30 08:27:05;;;;;;;29.95;19.55;;;;;;;12.64;62.40;101423.78;5049235;28;20043;-92
2021/04/30 08:29:31;;;;;;;29.27;18.42;;;;;;;12.64;62.00;101426.47;5067073;28;20047;-88
2021/04/30 08:31:57;;;;;;;37.75;17.58;;;;;;;12.58;62.23;101425.63;5046669;28;20104;-95
2021/04/30 08:34:24;;;;;;;25.98;18.38;;;;;;;12.59;62.53;101427.41;5052826;28;20093;-94
2021/04/30 08:36:55;;;;;;;32.15;17.10;;;;;;;12.66;62.03;101429.94;5048070;28;20235;-93
2021/04/30 08:39:24;;;;;;;27.55;17.73;;;;;;;12.60;62.01;101431.81;5050118;28;20029;-83
2021/04/30 08:41:51;;;;;;;34.13;19.50;;;;;;;12.60;61.87;101430.94;5040018;28;20041;-95
2021/04/30 08:44:17;;;;;;;22.95;16.48;;;;;;;12.67;61.61;101439.66;5045739;28;20075;-88
2021/04/30 08:46:44;;;;;;;25.05;17.52;;;;;;;12.67;62.25;101440.53;5047403;28;20033;-93
2021/04/30 08:49:10;;;;;;;27.13;17.20;;;;;;;12.65;61.97;101446.78;5051113;28;20150;-94
2021/04/30 08:51:38;;;;;;;25.08;16.35;;;;;;;12.67;61.24;101439.66;5053878;28;20029;-96
2021/04/30 08:54:06;;;;;;;29.35;17.17;;;;;;;12.68;61.36;101442.28;5047994;28;20059;-95
2021/04/30 08:56:33;;;;;;;35.70;19.65;;;;;;;12.69;61.95;101441.38;5061286;28;20021;-96
2021/04/30 08:59:06;;;;;;;25.10;16.20;;;;;;;12.68;61.77;101444.09;5070191;28;20057;-96
2021/04/30 09:01:34;;;;;;;27.38;17.85;;;;;;;12.69;62.02;101445.84;5053264;28;20055;-90
2021/04/30 09:04:00;;;;;;;29.13;18.30;;;;;;;12.67;61.72;101453.81;5047832;28;20029;-93
2021/04/30 09:06:36;;;;;;;32.15;19.52;;;;;;;12.70;62.46;101450.25;5042612;28;20041;-86
2021/04/30 09:09:11;;;;;;;32.10;21.65;;;;;;;12.65;62.57;101455.66;5047501;28;20025;-87
2021/04/30 09:11:41;;;;;;;37.15;22.80;;;;;;;12.57;62.56;101461.13;5042168;28;20104;-89
2021/04/30 09:14:30;;;;;;;37.40;22.02;;;;;;;12.58;63.31;101468.16;5045160;28;20112;-88
2021/04/30 09:19:56;;;;;;;39.22;23.55;;;;;;;12.48;63.14;101468.38;5074531;27;20398;-90
2021/04/30 09:25:07;;;;;;;35.50;22.02;;;;;;;12.37;63.65;101465.91;5037892;28;20427;-89
2021/04/30 09:36:04;;;;;;;38.42;24.17;;;;;;;12.55;64.75;101475.34;5036316;28;20862;-90
2021/04/30 09:38:32;;;;;;;36.05;22.42;;;;;;;12.55;65.00;101473.56;5030621;28;20029;-89
2021/04/30 09:49:11;;;;;;;39.53;25.80;;;;;;;12.65;64.66;101476.94;5011659;28;20414;-87
2021/04/30 09:51:54;;;;;;;40.85;26.52;;;;;;;12.71;64.72;101475.91;5005372;28;20027;-89
2021/04/30 09:54:26;;;;;;;34.92;25.38;;;;;;;12.73;64.70;101479.44;5000506;28;20046;-86
2021/04/30 09:57:19;;;;;;;40.00;25.67;;;;;;;12.76;64.35;101482.03;5004787;28;20018;-86
2021/04/30 10:02:38;;;;;;;35.25;23.90;;;;;;;12.62;64.68;101485.84;5050939;28;20423;-86
2021/04/30 10:07:58;;;;;;;33.65;21.98;;;;;;;12.71;64.49;101479.47;5099633;27;20727;-82
2021/04/30 10:10:24;;;;;;;27.45;18.65;;;;;;;12.74;64.05;101483.84;5101482;28;20032;-84
2021/04/30 10:12:57;;;;;;;25.80;19.80;;;;;;;12.81;63.95;101485.50;5105210;28;20028;-83
2021/04/30 10:15:24;;;;;;;27.67;19.50;;;;;;;12.81;64.11;101476.63;5100619;28;20074;-85
2021/04/30 10:17:57;;;;;;;26.45;17.30;;;;;;;12.88;63.46;101484.44;5105657;28;20034;-82
2021/04/30 10:20:24;;;;;;;25.55;16.90;;;;;;;12.81;64.25;101479.28;5098129;28;20144;-83
2021/04/30 10:22:52;;;;;;;22.90;17.45;;;;;;;12.84;63.80;101477.44;5101512;28;20152;-85
2021/04/30 10:25:19;;;;;;;21.85;16.40;;;;;;;12.86;63.34;101482.72;5101639;27;20052;-83
2021/04/30 10:27:54;;;;;;;20.55;16.25;;;;;;;12.86;63.22;101475.66;5092891;28;20040;-83
2021/04/30 10:30:41;;;;;;;25.33;16.45;;;;;;;12.94;62.58;101479.00;5096864;28;20063;-85
2021/04/30 10:38:33;;;;;;;23.65;16.80;;;;;;;13.13;62.82;101461.81;5049026;28;20883;-84
2021/04/30 10:41:01;;;;;;;26.15;16.95;;;;;;;13.17;62.86;101467.06;5028261;28;20040;-83
2021/04/30 10:43:29;;;;;;;24.13;18.33;;;;;;;13.18;63.36;101463.47;5027693;28;20037;-84
2021/04/30 10:54:46;;;;;;;20.58;16.70;;;;;;;13.56;62.97;101469.78;5119853;27;20363;-85
2021/04/30 10:57:16;;;;;;;23.10;17.40;;;;;;;13.63;63.12;101462.50;5109622;28;20483;-85
2021/04/30 10:59:45;;;;;;;21.52;17.27;;;;;;;13.69;63.01;101467.69;5109835;28;20076;-85
2021/04/30 11:02:21;;;;;;;21.20;17.77;;;;;;;13.83;62.97;101463.84;5109770;28;20023;-84
2021/04/30 11:07:52;;;;;;;20.90;16.38;;;;;;;14.08;62.29;101464.13;5096852;27;20360;-85
2021/04/30 11:18:59;;;;;;;18.30;15.32;;;;;;;14.53;60.54;101463.00;5068017;28;20418;-86
2021/04/30 11:21:42;;;;;;;20.02;15.15;;;;;;;14.59;60.36;101467.28;5066937;28;20029;-86
2021/04/30 11:29:52;;;;;;;15.98;11.73;;;;;;;14.67;59.81;101473.34;5066653;28;20522;-84
2021/04/30 11:32:24;;;;;;;10.77;9.63;;;;;;;14.63;59.56;101471.63;5060180;28;20028;-84
2021/04/30 11:34:59;;;;;;;9.27;8.25;;;;;;;14.68;58.75;101475.94;5058326;28;20451;-84
2021/04/30 11:37:28;;;;;;;10.75;9.65;;;;;;;14.62;58.68;101469.88;5050584;28;20100;-84
2021/04/30 11:39:56;;;;;;;18.35;12.90;;;;;;;14.59;58.43;101475.28;5049308;28;20026;-88
2021/04/30 11:42:31;;;;;;;19.40;14.50;;;;;;;14.63;57.97;101471.63;5048268;28;20550;-87
2021/04/30 11:44:59;;;;;;;17.38;12.73;;;;;;;14.55;58.01;101474.50;5055519;28;20021;-86
2021/04/30 11:47:35;;;;;;;16.50;13.23;;;;;;;14.63;57.91;101472.50;5058371;28;20029;-87
2021/04/30 11:50:02;;;;;;;16.13;13.23;;;;;;;14.50;58.06;101474.59;5045247;28;20060;-81
2021/04/30 11:52:36;;;;;;;19.63;14.60;;;;;;;14.50;57.65;101477.28;5053613;28;20032;-82
2021/04/30 11:55:07;;;;;;;19.10;15.13;;;;;;;14.37;57.71;101476.72;5054951;28;20036;-85
2021/04/30 11:57:35;;;;;;;19.80;14.88;;;;;;;14.23;57.87;101479.75;5037868;28;20028;-86
2021/04/30 12:00:03;;;;;;;21.80;16.08;;;;;;;14.02;57.92;101474.97;5046886;28;20687;-85
2021/04/30 12:02:30;;;;;;;22.52;17.30;;;;;;;13.73;58.29;101480.06;5047825;28;20372;-85
2021/04/30 12:04:57;;;;;;;24.38;18.42;;;;;;;13.40;58.80;101476.38;5047354;28;20022;-84
2021/04/30 12:07:25;;;;;;;26.85;18.75;;;;;;;13.38;59.41;101483.50;5045375;28;20099;-83
2021/04/30 12:09:52;;;;;;;26.25;18.73;;;;;;;13.04;60.11;101492.16;5038185;28;20084;-82
2021/04/30 12:15:04;;;;;;;21.45;18.20;;;;;;;12.55;60.03;101486.84;5078229;27;20398;-84
2021/04/30 12:17:40;;;;;;;22.38;17.92;;;;;;;12.50;60.41;101488.72;5056576;28;20363;-83
2021/04/30 12:23:02;;;;;;;18.75;14.93;;;;;;;12.46;61.42;101497.63;5109188;27;20359;-85
2021/04/30 12:31:08;;;;;;;22.48;15.35;;;;;;;12.72;60.93;101488.31;5053743;28;20398;-84